sensor_id;sensor_type;location;lat;lon;timestamp;temperature;humidity
17495;DHT22;8864;51.970;4.614;2024-02-23T00:02:01;16.20;92.20
17495;DHT22;8864;51.970;4.614;2024-02-23T00:04:28;16.10;92.20
17495;DHT22;8864;51.970;4.614;2024-02-23T00:06:55;16.20;92.20
17495;DHT22;8864;51.970;4.614;2024-02-23T00:09:22;16.20;92.20
17495;DHT22;8864;51.970;4.614;2024-02-23T00:11:50;16.20;92.20
17495;DHT22;8864;51.970;4.614;2024-02-23T00:14:17;16.20;92.20
17495;DHT22;8864;51.970;4.614;2024-02-23T00:16:44;16.20;92.20
17495;DHT22;8864;51.970;4.614;2024-02-23T00:19:11;16.20;92.20
17495;DHT22;8864;51.970;4.614;2024-02-23T00:21:40;16.20;92.20
17495;DHT22;8864;51.970;4.614;2024-02-23T00:24:08;16.20;92.30
17495;DHT22;8864;51.970;4.614;2024-02-23T00:26:35;16.20;92.20
17495;DHT22;8864;51.970;4.614;2024-02-23T00:29:03;16.10;92.20
17495;DHT22;8864;51.970;4.614;2024-02-23T00:31:30;16.10;92.20
17495;DHT22;8864;51.970;4.614;2024-02-23T00:33:57;16.10;92.20
17495;DHT22;8864;51.970;4.614;2024-02-23T00:36:26;16.10;92.20
17495;DHT22;8864;51.970;4.614;2024-02-23T00:38:53;16.10;92.20
17495;DHT22;8864;51.970;4.614;2024-02-23T00:41:20;16.10;92.20
17495;DHT22;8864;51.970;4.614;2024-02-23T00:43:47;16.10;92.20
17495;DHT22;8864;51.970;4.614;2024-02-23T00:46:14;16.10;92.20
17495;DHT22;8864;51.970;4.614;2024-02-23T00:48:41;16.10;92.20
17495;DHT22;8864;51.970;4.614;2024-02-23T00:51:08;16.10;92.20
17495;DHT22;8864;51.970;4.614;2024-02-23T00:53:37;16.10;92.20
17495;DHT22;8864;51.970;4.614;2024-02-23T00:56:04;16.10;92.30
17495;DHT22;8864;51.970;4.614;2024-02-23T00:58:31;16.10;92.30
17495;DHT22;8864;51.970;4.614;2024-02-23T01:00:59;16.10;92.20
17495;DHT22;8864;51.970;4.614;2024-02-23T01:03:26;16.10;92.20
17495;DHT22;8864;51.970;4.614;2024-02-23T01:05:53;16.10;92.30
17495;DHT22;8864;51.970;4.614;2024-02-23T01:08:20;16.10;92.30
17495;DHT22;8864;51.970;4.614;2024-02-23T01:10:48;16.10;92.30
17495;DHT22;8864;51.970;4.614;2024-02-23T01:13:15;16.10;92.30
17495;DHT22;8864;51.970;4.614;2024-02-23T01:15:42;16.10;92.30
17495;DHT22;8864;51.970;4.614;2024-02-23T01:18:10;16.10;92.30
17495;DHT22;8864;51.970;4.614;2024-02-23T01:20:37;16.10;92.30
17495;DHT22;8864;51.970;4.614;2024-02-23T01:23:04;16.10;92.30
17495;DHT22;8864;51.970;4.614;2024-02-23T01:25:31;16.10;92.30
17495;DHT22;8864;51.970;4.614;2024-02-23T01:28:02;16.10;92.30
17495;DHT22;8864;51.970;4.614;2024-02-23T01:30:30;16.10;92.30
17495;DHT22;8864;51.970;4.614;2024-02-23T01:32:58;16.00;92.30
17495;DHT22;8864;51.970;4.614;2024-02-23T01:35:26;16.10;92.30
17495;DHT22;8864;51.970;4.614;2024-02-23T01:37:53;16.10;92.30
17495;DHT22;8864;51.970;4.614;2024-02-23T01:40:20;16.00;92.30
17495;DHT22;8864;51.970;4.614;2024-02-23T01:42:47;16.00;92.30
17495;DHT22;8864;51.970;4.614;2024-02-23T01:45:15;16.00;92.30
17495;DHT22;8864;51.970;4.614;2024-02-23T01:47:43;16.00;92.40
17495;DHT22;8864;51.970;4.614;2024-02-23T01:50:10;16.00;92.50
17495;DHT22;8864;51.970;4.614;2024-02-23T01:52:38;16.00;92.70
17495;DHT22;8864;51.970;4.614;2024-02-23T01:55:06;16.10;92.70
17495;DHT22;8864;51.970;4.614;2024-02-23T01:57:33;16.10;93.00
17495;DHT22;8864;51.970;4.614;2024-02-23T02:00:00;16.10;92.60
17495;DHT22;8864;51.970;4.614;2024-02-23T02:02:29;16.10;92.60
17495;DHT22;8864;51.970;4.614;2024-02-23T02:04:56;16.10;92.50
17495;DHT22;8864;51.970;4.614;2024-02-23T02:07:23;16.10;92.90
17495;DHT22;8864;51.970;4.614;2024-02-23T02:09:51;16.10;92.50
17495;DHT22;8864;51.970;4.614;2024-02-23T02:12:26;16.10;92.60
17495;DHT22;8864;51.970;4.614;2024-02-23T02:14:53;16.10;92.60
17495;DHT22;8864;51.970;4.614;2024-02-23T02:17:21;16.10;92.60
17495;DHT22;8864;51.970;4.614;2024-02-23T02:19:50;16.10;92.60
17495;DHT22;8864;51.970;4.614;2024-02-23T02:22:17;16.10;92.60
17495;DHT22;8864;51.970;4.614;2024-02-23T02:24:44;16.10;92.50
17495;DHT22;8864;51.970;4.614;2024-02-23T02:27:12;16.10;92.60
17495;DHT22;8864;51.970;4.614;2024-02-23T02:29:39;16.10;92.60
17495;DHT22;8864;51.970;4.614;2024-02-23T02:32:06;16.10;92.60
17495;DHT22;8864;51.970;4.614;2024-02-23T02:34:34;16.10;92.50
17495;DHT22;8864;51.970;4.614;2024-02-23T02:37:03;16.10;92.60
17495;DHT22;8864;51.970;4.614;2024-02-23T02:39:30;16.10;92.50
17495;DHT22;8864;51.970;4.614;2024-02-23T02:41:57;16.10;92.50
17495;DHT22;8864;51.970;4.614;2024-02-23T02:44:24;16.00;92.50
17495;DHT22;8864;51.970;4.614;2024-02-23T02:46:52;16.00;92.50
17495;DHT22;8864;51.970;4.614;2024-02-23T02:49:19;16.10;92.50
17495;DHT22;8864;51.970;4.614;2024-02-23T02:51:46;16.10;92.50
17495;DHT22;8864;51.970;4.614;2024-02-23T02:54:14;16.00;92.50
17495;DHT22;8864;51.970;4.614;2024-02-23T02:56:42;16.10;92.50
17495;DHT22;8864;51.970;4.614;2024-02-23T02:59:09;16.10;92.50
17495;DHT22;8864;51.970;4.614;2024-02-23T03:01:36;16.00;92.50
17495;DHT22;8864;51.970;4.614;2024-02-23T03:04:03;16.00;92.40
17495;DHT22;8864;51.970;4.614;2024-02-23T03:06:30;16.00;92.40
17495;DHT22;8864;51.970;4.614;2024-02-23T03:08:57;16.00;92.40
17495;DHT22;8864;51.970;4.614;2024-02-23T03:11:25;16.00;92.40
17495;DHT22;8864;51.970;4.614;2024-02-23T03:13:52;16.00;92.40
17495;DHT22;8864;51.970;4.614;2024-02-23T03:16:20;16.00;92.40
17495;DHT22;8864;51.970;4.614;2024-02-23T03:18:48;16.00;92.40
17495;DHT22;8864;51.970;4.614;2024-02-23T03:21:16;16.00;92.40
17495;DHT22;8864;51.970;4.614;2024-02-23T03:23:43;16.00;92.40
17495;DHT22;8864;51.970;4.614;2024-02-23T03:26:10;16.00;92.40
17495;DHT22;8864;51.970;4.614;2024-02-23T03:28:39;16.00;92.40
17495;DHT22;8864;51.970;4.614;2024-02-23T03:31:06;16.00;92.30
17495;DHT22;8864;51.970;4.614;2024-02-23T03:33:34;16.00;92.40
17495;DHT22;8864;51.970;4.614;2024-02-23T03:36:02;16.00;92.30
17495;DHT22;8864;51.970;4.614;2024-02-23T03:38:29;16.00;92.30
17495;DHT22;8864;51.970;4.614;2024-02-23T03:40:56;16.00;92.30
17495;DHT22;8864;51.970;4.614;2024-02-23T03:43:23;16.00;92.30
17495;DHT22;8864;51.970;4.614;2024-02-23T03:45:52;16.00;92.30
17495;DHT22;8864;51.970;4.614;2024-02-23T03:48:19;16.00;92.30
17495;DHT22;8864;51.970;4.614;2024-02-23T03:50:46;16.00;92.30
17495;DHT22;8864;51.970;4.614;2024-02-23T03:53:13;16.00;92.30
17495;DHT22;8864;51.970;4.614;2024-02-23T03:55:40;16.00;92.30
17495;DHT22;8864;51.970;4.614;2024-02-23T03:58:07;16.00;92.30
17495;DHT22;8864;51.970;4.614;2024-02-23T04:00:34;16.00;92.30
17495;DHT22;8864;51.970;4.614;2024-02-23T04:03:03;16.00;92.30
17495;DHT22;8864;51.970;4.614;2024-02-23T04:05:30;16.00;92.30
17495;DHT22;8864;51.970;4.614;2024-02-23T04:07:57;16.00;92.30
17495;DHT22;8864;51.970;4.614;2024-02-23T04:10:24;16.00;92.30
17495;DHT22;8864;51.970;4.614;2024-02-23T04:12:51;16.00;92.20
17495;DHT22;8864;51.970;4.614;2024-02-23T04:15:18;16.00;92.20
17495;DHT22;8864;51.970;4.614;2024-02-23T04:17:46;15.90;92.20
17495;DHT22;8864;51.970;4.614;2024-02-23T04:20:14;16.00;92.30
17495;DHT22;8864;51.970;4.614;2024-02-23T04:22:42;16.00;92.20
17495;DHT22;8864;51.970;4.614;2024-02-23T04:25:08;16.00;92.30
17495;DHT22;8864;51.970;4.614;2024-02-23T04:27:36;15.90;92.20
17495;DHT22;8864;51.970;4.614;2024-02-23T04:30:04;16.00;92.20
17495;DHT22;8864;51.970;4.614;2024-02-23T04:32:31;15.90;92.20
17495;DHT22;8864;51.970;4.614;2024-02-23T04:34:58;15.90;92.20
17495;DHT22;8864;51.970;4.614;2024-02-23T04:37:27;15.90;92.20
17495;DHT22;8864;51.970;4.614;2024-02-23T04:39:54;15.90;92.20
17495;DHT22;8864;51.970;4.614;2024-02-23T04:42:20;15.90;92.20
17495;DHT22;8864;51.970;4.614;2024-02-23T04:44:47;15.90;92.20
17495;DHT22;8864;51.970;4.614;2024-02-23T04:47:15;15.90;92.20
17495;DHT22;8864;51.970;4.614;2024-02-23T04:49:41;15.90;92.10
17495;DHT22;8864;51.970;4.614;2024-02-23T04:52:08;15.90;92.10
17495;DHT22;8864;51.970;4.614;2024-02-23T04:54:37;15.90;92.20
17495;DHT22;8864;51.970;4.614;2024-02-23T04:57:04;15.90;92.20
17495;DHT22;8864;51.970;4.614;2024-02-23T04:59:30;15.90;92.10
17495;DHT22;8864;51.970;4.614;2024-02-23T05:01:58;15.90;92.20
17495;DHT22;8864;51.970;4.614;2024-02-23T05:04:25;15.90;92.10
17495;DHT22;8864;51.970;4.614;2024-02-23T05:06:52;15.90;92.00
17495;DHT22;8864;51.970;4.614;2024-02-23T05:09:20;15.90;92.00
17495;DHT22;8864;51.970;4.614;2024-02-23T05:11:48;15.90;91.90
17495;DHT22;8864;51.970;4.614;2024-02-23T05:14:15;15.80;91.90
17495;DHT22;8864;51.970;4.614;2024-02-23T05:16:42;15.80;91.80
17495;DHT22;8864;51.970;4.614;2024-02-23T05:19:09;15.80;91.80
17495;DHT22;8864;51.970;4.614;2024-02-23T05:21:36;15.80;91.70
17495;DHT22;8864;51.970;4.614;2024-02-23T05:24:04;15.80;91.70
17495;DHT22;8864;51.970;4.614;2024-02-23T05:26:32;15.80;91.60
17495;DHT22;8864;51.970;4.614;2024-02-23T05:29:00;15.80;91.50
17495;DHT22;8864;51.970;4.614;2024-02-23T05:31:45;15.80;91.40
17495;DHT22;8864;51.970;4.614;2024-02-23T05:34:13;15.80;91.30
17495;DHT22;8864;51.970;4.614;2024-02-23T05:36:40;15.80;91.20
17495;DHT22;8864;51.970;4.614;2024-02-23T05:39:07;15.80;91.50
17495;DHT22;8864;51.970;4.614;2024-02-23T05:41:35;15.70;91.10
17495;DHT22;8864;51.970;4.614;2024-02-23T05:44:04;15.70;91.00
17495;DHT22;8864;51.970;4.614;2024-02-23T05:46:32;15.70;91.00
17495;DHT22;8864;51.970;4.614;2024-02-23T05:48:59;15.70;90.90
17495;DHT22;8864;51.970;4.614;2024-02-23T05:51:28;15.70;90.90
17495;DHT22;8864;51.970;4.614;2024-02-23T05:53:56;15.70;90.80
17495;DHT22;8864;51.970;4.614;2024-02-23T05:56:23;15.70;90.70
17495;DHT22;8864;51.970;4.614;2024-02-23T05:58:50;15.70;90.60
17495;DHT22;8864;51.970;4.614;2024-02-23T06:01:19;15.70;90.60
17495;DHT22;8864;51.970;4.614;2024-02-23T06:03:46;15.70;90.50
17495;DHT22;8864;51.970;4.614;2024-02-23T06:06:13;15.70;90.50
17495;DHT22;8864;51.970;4.614;2024-02-23T06:08:40;15.70;90.40
17495;DHT22;8864;51.970;4.614;2024-02-23T06:11:10;15.60;90.30
17495;DHT22;8864;51.970;4.614;2024-02-23T06:13:37;15.70;90.40
17495;DHT22;8864;51.970;4.614;2024-02-23T06:16:04;15.70;90.30
17495;DHT22;8864;51.970;4.614;2024-02-23T06:18:33;15.70;90.30
17495;DHT22;8864;51.970;4.614;2024-02-23T06:21:00;15.70;90.30
17495;DHT22;8864;51.970;4.614;2024-02-23T06:23:27;15.70;90.20
17495;DHT22;8864;51.970;4.614;2024-02-23T06:25:55;15.70;90.20
17495;DHT22;8864;51.970;4.614;2024-02-23T06:28:22;15.70;90.20
17495;DHT22;8864;51.970;4.614;2024-02-23T06:30:49;15.70;90.30
17495;DHT22;8864;51.970;4.614;2024-02-23T06:33:16;15.80;90.30
17495;DHT22;8864;51.970;4.614;2024-02-23T06:35:45;15.70;90.10
17495;DHT22;8864;51.970;4.614;2024-02-23T06:38:12;15.70;90.10
17495;DHT22;8864;51.970;4.614;2024-02-23T06:40:39;15.80;90.00
17495;DHT22;8864;51.970;4.614;2024-02-23T06:43:06;15.80;90.00
17495;DHT22;8864;51.970;4.614;2024-02-23T06:45:33;15.70;89.80
17495;DHT22;8864;51.970;4.614;2024-02-23T06:48:00;15.70;89.60
17495;DHT22;8864;51.970;4.614;2024-02-23T06:50:27;15.70;89.40
17495;DHT22;8864;51.970;4.614;2024-02-23T06:52:55;15.70;89.30
17495;DHT22;8864;51.970;4.614;2024-02-23T06:55:22;15.70;89.00
17495;DHT22;8864;51.970;4.614;2024-02-23T06:57:49;15.70;88.90
17495;DHT22;8864;51.970;4.614;2024-02-23T07:00:17;15.70;88.70
17495;DHT22;8864;51.970;4.614;2024-02-23T07:02:43;15.70;88.40
17495;DHT22;8864;51.970;4.614;2024-02-23T07:05:10;15.70;88.30
17495;DHT22;8864;51.970;4.614;2024-02-23T07:07:37;15.70;88.10
17495;DHT22;8864;51.970;4.614;2024-02-23T07:10:08;15.70;88.00
17495;DHT22;8864;51.970;4.614;2024-02-23T07:12:36;15.70;87.90
17495;DHT22;8864;51.970;4.614;2024-02-23T07:15:03;15.70;87.80
17495;DHT22;8864;51.970;4.614;2024-02-23T07:17:30;15.70;87.50
17495;DHT22;8864;51.970;4.614;2024-02-23T07:19:57;15.70;87.50
17495;DHT22;8864;51.970;4.614;2024-02-23T07:22:31;15.70;87.50
17495;DHT22;8864;51.970;4.614;2024-02-23T07:24:58;15.70;87.30
17495;DHT22;8864;51.970;4.614;2024-02-23T07:27:29;15.70;87.10
17495;DHT22;8864;51.970;4.614;2024-02-23T07:29:57;15.80;87.00
17495;DHT22;8864;51.970;4.614;2024-02-23T07:32:24;15.70;86.90
17495;DHT22;8864;51.970;4.614;2024-02-23T07:35:03;15.70;86.80
17495;DHT22;8864;51.970;4.614;2024-02-23T07:37:30;15.70;86.80
17495;DHT22;8864;51.970;4.614;2024-02-23T07:39:57;15.70;86.90
17495;DHT22;8864;51.970;4.614;2024-02-23T07:42:25;15.70;86.80
17495;DHT22;8864;51.970;4.614;2024-02-23T07:44:55;15.70;86.70
17495;DHT22;8864;51.970;4.614;2024-02-23T07:47:22;15.70;87.00
17495;DHT22;8864;51.970;4.614;2024-02-23T07:49:50;15.70;86.90
17495;DHT22;8864;51.970;4.614;2024-02-23T07:52:17;15.70;86.70
17495;DHT22;8864;51.970;4.614;2024-02-23T07:54:45;15.70;86.60
17495;DHT22;8864;51.970;4.614;2024-02-23T07:57:12;15.70;86.40
17495;DHT22;8864;51.970;4.614;2024-02-23T07:59:42;15.70;86.30
17495;DHT22;8864;51.970;4.614;2024-02-23T08:02:10;15.70;86.30
17495;DHT22;8864;51.970;4.614;2024-02-23T08:04:37;15.70;86.20
17495;DHT22;8864;51.970;4.614;2024-02-23T08:07:04;15.70;86.10
17495;DHT22;8864;51.970;4.614;2024-02-23T08:09:31;15.70;86.10
17495;DHT22;8864;51.970;4.614;2024-02-23T08:11:58;15.70;86.00
17495;DHT22;8864;51.970;4.614;2024-02-23T08:14:25;15.70;85.90
17495;DHT22;8864;51.970;4.614;2024-02-23T08:16:52;15.60;85.70
17495;DHT22;8864;51.970;4.614;2024-02-23T08:19:21;15.70;85.70
17495;DHT22;8864;51.970;4.614;2024-02-23T08:21:48;15.70;85.70
17495;DHT22;8864;51.970;4.614;2024-02-23T08:24:15;15.70;85.70
17495;DHT22;8864;51.970;4.614;2024-02-23T08:26:43;15.70;85.80
17495;DHT22;8864;51.970;4.614;2024-02-23T08:29:10;15.70;85.80
17495;DHT22;8864;51.970;4.614;2024-02-23T08:31:37;15.70;85.80
17495;DHT22;8864;51.970;4.614;2024-02-23T08:34:04;15.70;85.80
17495;DHT22;8864;51.970;4.614;2024-02-23T08:36:33;15.70;86.60
17495;DHT22;8864;51.970;4.614;2024-02-23T08:39:00;15.70;85.80
17495;DHT22;8864;51.970;4.614;2024-02-23T08:41:28;15.70;85.90
17495;DHT22;8864;51.970;4.614;2024-02-23T08:43:55;15.70;86.10
17495;DHT22;8864;51.970;4.614;2024-02-23T08:46:22;15.70;86.30
17495;DHT22;8864;51.970;4.614;2024-02-23T08:48:50;15.70;86.40
17495;DHT22;8864;51.970;4.614;2024-02-23T08:51:17;15.70;86.50
17495;DHT22;8864;51.970;4.614;2024-02-23T08:53:45;15.70;86.60
17495;DHT22;8864;51.970;4.614;2024-02-23T08:56:12;15.80;86.80
17495;DHT22;8864;51.970;4.614;2024-02-23T08:58:41;15.80;86.90
17495;DHT22;8864;51.970;4.614;2024-02-23T09:01:08;15.80;86.90
17495;DHT22;8864;51.970;4.614;2024-02-23T09:03:36;15.80;87.00
17495;DHT22;8864;51.970;4.614;2024-02-23T09:06:03;15.80;87.00
17495;DHT22;8864;51.970;4.614;2024-02-23T09:08:30;15.80;87.00
17495;DHT22;8864;51.970;4.614;2024-02-23T09:10:58;15.90;87.20
17495;DHT22;8864;51.970;4.614;2024-02-23T09:13:26;15.90;87.20
17495;DHT22;8864;51.970;4.614;2024-02-23T09:15:55;15.90;87.20
17495;DHT22;8864;51.970;4.614;2024-02-23T09:18:22;15.90;87.20
17495;DHT22;8864;51.970;4.614;2024-02-23T09:20:50;15.90;87.20
17495;DHT22;8864;51.970;4.614;2024-02-23T09:23:17;16.00;87.30
17495;DHT22;8864;51.970;4.614;2024-02-23T09:25:44;15.90;88.00
17495;DHT22;8864;51.970;4.614;2024-02-23T09:28:12;16.00;87.30
17495;DHT22;8864;51.970;4.614;2024-02-23T09:30:41;16.00;87.40
17495;DHT22;8864;51.970;4.614;2024-02-23T09:33:08;16.00;87.40
17495;DHT22;8864;51.970;4.614;2024-02-23T09:35:35;16.00;87.50
17495;DHT22;8864;51.970;4.614;2024-02-23T09:38:02;16.00;87.50
17495;DHT22;8864;51.970;4.614;2024-02-23T09:40:30;16.00;87.50
17495;DHT22;8864;51.970;4.614;2024-02-23T09:42:58;16.00;87.50
17495;DHT22;8864;51.970;4.614;2024-02-23T09:45:26;16.00;87.50
17495;DHT22;8864;51.970;4.614;2024-02-23T09:47:56;16.00;87.60
17495;DHT22;8864;51.970;4.614;2024-02-23T09:50:24;16.00;87.60
17495;DHT22;8864;51.970;4.614;2024-02-23T09:52:51;16.00;87.60
17495;DHT22;8864;51.970;4.614;2024-02-23T09:55:18;16.10;87.70
17495;DHT22;8864;51.970;4.614;2024-02-23T09:57:48;16.00;87.60
17495;DHT22;8864;51.970;4.614;2024-02-23T10:00:16;16.10;87.60
17495;DHT22;8864;51.970;4.614;2024-02-23T10:02:45;16.10;87.80
17495;DHT22;8864;51.970;4.614;2024-02-23T10:05:13;16.10;87.80
17495;DHT22;8864;51.970;4.614;2024-02-23T10:07:40;16.10;87.80
17495;DHT22;8864;51.970;4.614;2024-02-23T10:10:08;16.10;87.70
17495;DHT22;8864;51.970;4.614;2024-02-23T10:12:37;16.10;87.70
17495;DHT22;8864;51.970;4.614;2024-02-23T10:15:06;16.10;87.80
17495;DHT22;8864;51.970;4.614;2024-02-23T10:17:33;16.10;87.80
17495;DHT22;8864;51.970;4.614;2024-02-23T10:20:04;16.10;87.80
17495;DHT22;8864;51.970;4.614;2024-02-23T10:22:31;16.20;87.80
17495;DHT22;8864;51.970;4.614;2024-02-23T10:24:59;16.20;87.80
17495;DHT22;8864;51.970;4.614;2024-02-23T10:27:27;16.20;87.80
17495;DHT22;8864;51.970;4.614;2024-02-23T10:29:54;16.20;87.80
17495;DHT22;8864;51.970;4.614;2024-02-23T10:32:23;16.20;87.80
17495;DHT22;8864;51.970;4.614;2024-02-23T10:34:52;16.20;87.80
17495;DHT22;8864;51.970;4.614;2024-02-23T10:37:23;16.20;87.70
17495;DHT22;8864;51.970;4.614;2024-02-23T10:39:55;16.20;87.70
17495;DHT22;8864;51.970;4.614;2024-02-23T10:42:24;16.20;87.70
17495;DHT22;8864;51.970;4.614;2024-02-23T10:44:57;16.20;87.70
17495;DHT22;8864;51.970;4.614;2024-02-23T10:47:27;16.30;87.80
17495;DHT22;8864;51.970;4.614;2024-02-23T10:49:56;16.30;87.80
17495;DHT22;8864;51.970;4.614;2024-02-23T10:52:25;16.30;87.80
17495;DHT22;8864;51.970;4.614;2024-02-23T10:54:53;16.30;87.80
17495;DHT22;8864;51.970;4.614;2024-02-23T10:57:20;16.30;87.80
17495;DHT22;8864;51.970;4.614;2024-02-23T10:59:48;16.30;87.80
17495;DHT22;8864;51.970;4.614;2024-02-23T11:02:19;16.30;87.80
17495;DHT22;8864;51.970;4.614;2024-02-23T11:04:48;16.30;87.80
17495;DHT22;8864;51.970;4.614;2024-02-23T11:07:19;16.30;87.90
17495;DHT22;8864;51.970;4.614;2024-02-23T11:09:52;16.30;87.90
17495;DHT22;8864;51.970;4.614;2024-02-23T11:12:25;16.30;87.90
17495;DHT22;8864;51.970;4.614;2024-02-23T11:14:56;16.30;87.90
17495;DHT22;8864;51.970;4.614;2024-02-23T11:17:26;16.30;87.90
17495;DHT22;8864;51.970;4.614;2024-02-23T11:19:55;16.30;87.90
17495;DHT22;8864;51.970;4.614;2024-02-23T11:22:25;16.30;87.90
17495;DHT22;8864;51.970;4.614;2024-02-23T11:24:59;16.30;87.90
17495;DHT22;8864;51.970;4.614;2024-02-23T11:27:30;16.40;87.90
17495;DHT22;8864;51.970;4.614;2024-02-23T11:30:02;16.30;87.90
17495;DHT22;8864;51.970;4.614;2024-02-23T11:32:37;16.30;88.00
17495;DHT22;8864;51.970;4.614;2024-02-23T11:35:06;16.30;88.00
17495;DHT22;8864;51.970;4.614;2024-02-23T11:37:45;16.40;88.10
17495;DHT22;8864;51.970;4.614;2024-02-23T11:40:14;16.40;88.00
17495;DHT22;8864;51.970;4.614;2024-02-23T11:42:41;16.40;88.20
17495;DHT22;8864;51.970;4.614;2024-02-23T11:45:10;16.40;88.10
17495;DHT22;8864;51.970;4.614;2024-02-23T11:47:37;16.40;88.00
17495;DHT22;8864;51.970;4.614;2024-02-23T11:50:08;16.40;88.00
17495;DHT22;8864;51.970;4.614;2024-02-23T11:52:37;16.40;88.00
17495;DHT22;8864;51.970;4.614;2024-02-23T11:55:05;16.50;88.10
17495;DHT22;8864;51.970;4.614;2024-02-23T11:57:35;16.50;88.10
17495;DHT22;8864;51.970;4.614;2024-02-23T12:00:04;16.40;88.10
17495;DHT22;8864;51.970;4.614;2024-02-23T12:02:35;16.50;88.10
17495;DHT22;8864;51.970;4.614;2024-02-23T12:05:02;16.50;88.20
17495;DHT22;8864;51.970;4.614;2024-02-23T12:07:30;16.50;88.10
17495;DHT22;8864;51.970;4.614;2024-02-23T12:09:58;16.50;88.00
17495;DHT22;8864;51.970;4.614;2024-02-23T12:12:25;16.50;88.00
17495;DHT22;8864;51.970;4.614;2024-02-23T12:14:54;16.50;88.10
17495;DHT22;8864;51.970;4.614;2024-02-23T12:17:21;16.50;88.00
17495;DHT22;8864;51.970;4.614;2024-02-23T12:19:48;16.50;88.00
17495;DHT22;8864;51.970;4.614;2024-02-23T12:22:15;16.50;88.20
17495;DHT22;8864;51.970;4.614;2024-02-23T12:24:45;16.50;88.20
17495;DHT22;8864;51.970;4.614;2024-02-23T12:27:16;16.50;88.20
17495;DHT22;8864;51.970;4.614;2024-02-23T12:29:52;16.50;88.20
17495;DHT22;8864;51.970;4.614;2024-02-23T12:32:21;16.50;88.20
17495;DHT22;8864;51.970;4.614;2024-02-23T12:34:48;16.50;88.20
17495;DHT22;8864;51.970;4.614;2024-02-23T12:37:18;16.50;88.20
17495;DHT22;8864;51.970;4.614;2024-02-23T12:39:47;16.50;88.20
17495;DHT22;8864;51.970;4.614;2024-02-23T12:42:14;16.60;88.20
17495;DHT22;8864;51.970;4.614;2024-02-23T12:44:41;16.50;88.20
17495;DHT22;8864;51.970;4.614;2024-02-23T12:47:10;16.60;88.30
17495;DHT22;8864;51.970;4.614;2024-02-23T12:49:38;16.50;88.20
17495;DHT22;8864;51.970;4.614;2024-02-23T12:52:05;16.60;88.20
17495;DHT22;8864;51.970;4.614;2024-02-23T12:54:32;16.60;88.20
17495;DHT22;8864;51.970;4.614;2024-02-23T12:57:00;16.60;88.20
17495;DHT22;8864;51.970;4.614;2024-02-23T12:59:27;16.60;88.20
17495;DHT22;8864;51.970;4.614;2024-02-23T13:01:54;16.60;88.20
17495;DHT22;8864;51.970;4.614;2024-02-23T13:04:20;16.60;88.20
17495;DHT22;8864;51.970;4.614;2024-02-23T13:06:50;16.60;88.10
17495;DHT22;8864;51.970;4.614;2024-02-23T13:09:20;16.60;88.00
17495;DHT22;8864;51.970;4.614;2024-02-23T13:11:46;16.60;88.00
17495;DHT22;8864;51.970;4.614;2024-02-23T13:14:13;16.60;88.00
17495;DHT22;8864;51.970;4.614;2024-02-23T13:16:41;16.60;88.00
17495;DHT22;8864;51.970;4.614;2024-02-23T13:19:08;16.70;88.00
17495;DHT22;8864;51.970;4.614;2024-02-23T13:21:35;16.60;87.90
17495;DHT22;8864;51.970;4.614;2024-02-23T13:24:04;16.70;87.90
17495;DHT22;8864;51.970;4.614;2024-02-23T13:26:31;16.70;87.90
17495;DHT22;8864;51.970;4.614;2024-02-23T13:28:58;16.70;87.90
17495;DHT22;8864;51.970;4.614;2024-02-23T13:31:25;16.70;87.80
17495;DHT22;8864;51.970;4.614;2024-02-23T13:33:52;16.70;87.90
17495;DHT22;8864;51.970;4.614;2024-02-23T13:36:20;16.60;87.70
17495;DHT22;8864;51.970;4.614;2024-02-23T13:38:46;16.60;87.80
17495;DHT22;8864;51.970;4.614;2024-02-23T13:41:15;16.70;87.70
17495;DHT22;8864;51.970;4.614;2024-02-23T13:43:42;16.60;87.60
17495;DHT22;8864;51.970;4.614;2024-02-23T13:46:09;16.70;87.70
17495;DHT22;8864;51.970;4.614;2024-02-23T13:48:36;16.60;87.60
17495;DHT22;8864;51.970;4.614;2024-02-23T13:51:04;16.70;87.60
17495;DHT22;8864;51.970;4.614;2024-02-23T13:53:32;16.70;87.60
17495;DHT22;8864;51.970;4.614;2024-02-23T13:56:00;16.70;87.50
17495;DHT22;8864;51.970;4.614;2024-02-23T13:58:29;16.70;87.50
17495;DHT22;8864;51.970;4.614;2024-02-23T14:00:57;16.70;87.50
17495;DHT22;8864;51.970;4.614;2024-02-23T14:03:24;16.70;87.50
17495;DHT22;8864;51.970;4.614;2024-02-23T14:05:51;16.70;87.50
17495;DHT22;8864;51.970;4.614;2024-02-23T14:08:18;16.70;87.50
17495;DHT22;8864;51.970;4.614;2024-02-23T14:10:45;16.70;87.50
17495;DHT22;8864;51.970;4.614;2024-02-23T14:13:12;16.60;87.60
17495;DHT22;8864;51.970;4.614;2024-02-23T14:15:41;16.70;87.60
17495;DHT22;8864;51.970;4.614;2024-02-23T14:18:08;16.70;87.60
17495;DHT22;8864;51.970;4.614;2024-02-23T14:20:35;16.70;87.50
17495;DHT22;8864;51.970;4.614;2024-02-23T14:23:03;16.70;87.50
17495;DHT22;8864;51.970;4.614;2024-02-23T14:25:30;16.60;87.40
17495;DHT22;8864;51.970;4.614;2024-02-23T14:27:57;16.60;87.40
17495;DHT22;8864;51.970;4.614;2024-02-23T14:30:24;16.60;87.40
17495;DHT22;8864;51.970;4.614;2024-02-23T14:32:52;16.60;87.50
17495;DHT22;8864;51.970;4.614;2024-02-23T14:35:19;16.60;87.50
17495;DHT22;8864;51.970;4.614;2024-02-23T14:37:47;16.60;87.60
17495;DHT22;8864;51.970;4.614;2024-02-23T14:40:14;16.60;87.60
17495;DHT22;8864;51.970;4.614;2024-02-23T14:42:41;16.60;87.60
17495;DHT22;8864;51.970;4.614;2024-02-23T14:45:08;16.60;87.60
17495;DHT22;8864;51.970;4.614;2024-02-23T14:47:39;16.60;87.60
17495;DHT22;8864;51.970;4.614;2024-02-23T14:50:09;16.50;87.60
17495;DHT22;8864;51.970;4.614;2024-02-23T14:52:36;16.60;87.70
17495;DHT22;8864;51.970;4.614;2024-02-23T14:55:04;16.60;87.60
17495;DHT22;8864;51.970;4.614;2024-02-23T14:57:31;16.60;87.60
17495;DHT22;8864;51.970;4.614;2024-02-23T14:59:58;16.50;87.50
17495;DHT22;8864;51.970;4.614;2024-02-23T15:02:25;16.60;87.50
17495;DHT22;8864;51.970;4.614;2024-02-23T15:04:52;16.60;87.40
17495;DHT22;8864;51.970;4.614;2024-02-23T15:07:22;16.70;87.40
17495;DHT22;8864;51.970;4.614;2024-02-23T15:09:49;16.70;87.40
17495;DHT22;8864;51.970;4.614;2024-02-23T15:12:16;16.70;87.40
17495;DHT22;8864;51.970;4.614;2024-02-23T15:14:51;16.60;88.00
17495;DHT22;8864;51.970;4.614;2024-02-23T15:17:18;16.60;87.30
17495;DHT22;8864;51.970;4.614;2024-02-23T15:19:45;16.60;87.30
17495;DHT22;8864;51.970;4.614;2024-02-23T15:22:12;16.60;87.40
17495;DHT22;8864;51.970;4.614;2024-02-23T15:24:42;16.60;87.50
17495;DHT22;8864;51.970;4.614;2024-02-23T15:27:11;16.60;87.40
17495;DHT22;8864;51.970;4.614;2024-02-23T15:29:38;16.60;87.60
17495;DHT22;8864;51.970;4.614;2024-02-23T15:32:06;16.60;87.60
17495;DHT22;8864;51.970;4.614;2024-02-23T15:34:33;16.60;87.60
17495;DHT22;8864;51.970;4.614;2024-02-23T15:37:00;16.60;87.70
17495;DHT22;8864;51.970;4.614;2024-02-23T15:39:27;16.50;87.60
17495;DHT22;8864;51.970;4.614;2024-02-23T15:41:56;16.50;87.60
17495;DHT22;8864;51.970;4.614;2024-02-23T15:44:23;16.50;87.70
17495;DHT22;8864;51.970;4.614;2024-02-23T15:46:50;16.50;87.90
17495;DHT22;8864;51.970;4.614;2024-02-23T15:49:17;16.50;88.20